createdAt,value
2017-12-27T00:02:25.753Z,96172.15
2017-12-27T00:04:59.620Z,96158.55
2017-12-27T00:07:33.359Z,96147.94
2017-12-27T00:10:07.143Z,96141.50
2017-12-27T00:12:40.988Z,96137.16
2017-12-27T00:15:14.678Z,96130.72
2017-12-27T00:17:48.490Z,96127.30
2017-12-27T00:20:22.291Z,96119.53
2017-12-27T00:22:56.151Z,96120.74
2017-12-27T00:25:29.946Z,96115.02
2017-12-27T00:28:03.827Z,96106.17
2017-12-27T00:30:37.657Z,96096.47
2017-12-27T00:33:05.997Z,96090.91
2017-12-27T00:35:34.340Z,96089.23
2017-12-27T00:38:02.658Z,96086.79
2017-12-27T00:40:31.012Z,96080.03
2017-12-27T00:42:59.341Z,96075.67
2017-12-27T00:45:27.689Z,96067.34
2017-12-27T00:47:56.710Z,96063.55
2017-12-27T00:50:25.052Z,96055.91
2017-12-27T00:52:53.383Z,96056.23
2017-12-27T00:55:21.704Z,96053.48
2017-12-27T00:57:51.080Z,96051.22
2017-12-27T01:00:19.419Z,96041.03
2017-12-27T01:02:47.738Z,96023.37
2017-12-27T01:05:16.073Z,96016.49
2017-12-27T01:07:45.177Z,96013.52
2017-12-27T01:10:13.502Z,96010.58
2017-12-27T01:12:41.822Z,96005.98
2017-12-27T01:15:10.925Z,96013.83
2017-12-27T01:17:39.260Z,96003.98
2017-12-27T01:20:07.604Z,96000.09
2017-12-27T01:22:35.918Z,95997.38
2017-12-27T01:25:04.230Z,95997.41
2017-12-27T01:27:32.537Z,96004.61
2017-12-27T01:30:01.672Z,95997.03
2017-12-27T01:32:30.010Z,95987.92
2017-12-27T01:34:58.356Z,95971.42
2017-12-27T01:37:26.691Z,95963.81
2017-12-27T01:39:55.039Z,95959.95
2017-12-27T01:42:23.350Z,95950.28
2017-12-27T01:44:51.696Z,95948.46
2017-12-27T01:47:20.010Z,95937.05
2017-12-27T01:49:48.353Z,95937.39
2017-12-27T01:52:16.683Z,95934.84
2017-12-27T01:54:45.023Z,95927.29
2017-12-27T01:57:13.347Z,95918.27
2017-12-27T01:59:41.667Z,95910.27
2017-12-27T02:02:10.057Z,95901.89
2017-12-27T02:04:38.415Z,95892.58
2017-12-27T02:07:06.756Z,95895.72
2017-12-27T02:09:35.843Z,95888.41
2017-12-27T02:12:04.162Z,95885.77
2017-12-27T02:14:33.261Z,95878.08
2017-12-27T02:17:01.592Z,95871.19
2017-12-27T02:19:29.942Z,95873.20
2017-12-27T02:21:58.252Z,95872.98
2017-12-27T02:24:27.350Z,95862.97
2017-12-27T02:26:55.672Z,95864.61
2017-12-27T02:29:24.013Z,95855.73
2017-12-27T02:31:53.110Z,95852.63
2017-12-27T02:34:21.458Z,95845.41
2017-12-27T02:36:49.785Z,95834.96
2017-12-27T02:42:47.444Z,95819.38
2017-12-27T02:45:15.778Z,95818.77
2017-12-27T02:47:44.107Z,95806.08
2017-12-27T02:50:12.442Z,95798.30
2017-12-27T02:52:40.789Z,95789.02
2017-12-27T02:55:09.132Z,95776.39
2017-12-27T02:57:37.472Z,95776.39
2017-12-27T03:00:05.798Z,95771.34
2017-12-27T03:02:34.153Z,95768.22
2017-12-27T03:05:03.250Z,95761.93
2017-12-27T03:07:31.568Z,95753.97
2017-12-27T03:09:59.894Z,95745.88
2017-12-27T03:12:28.232Z,95732.25
2017-12-27T03:14:57.588Z,95725.54
2017-12-27T03:17:25.902Z,95715.13
2017-12-27T03:19:54.244Z,95709.27
2017-12-27T03:22:23.331Z,95699.64
2017-12-27T03:24:51.653Z,95697.30
2017-12-27T03:27:19.967Z,95697.69
2017-12-27T03:29:48.291Z,95687.43
2017-12-27T03:32:17.129Z,95678.76
2017-12-27T03:34:45.520Z,95668.84
2017-12-27T03:37:13.819Z,95659.14
2017-12-27T03:39:42.921Z,95664.07
2017-12-27T03:42:11.234Z,95662.63
2017-12-27T03:44:39.550Z,95650.49
2017-12-27T03:47:07.879Z,95658.99
2017-12-27T03:49:36.224Z,95649.80
2017-12-27T03:52:04.552Z,95647.41
2017-12-27T03:54:32.962Z,95642.59
2017-12-27T03:57:01.291Z,95634.84
2017-12-27T03:59:29.639Z,95636.13
2017-12-27T04:01:57.962Z,95632.09
2017-12-27T04:04:26.296Z,95627.84
2017-12-27T04:06:55.382Z,95622.99
2017-12-27T04:09:23.708Z,95614.25
2017-12-27T04:11:52.018Z,95611.98
2017-12-27T04:14:20.350Z,95609.31
2017-12-27T04:16:48.666Z,95597.75
2017-12-27T04:19:16.990Z,95592.53
2017-12-27T04:21:45.315Z,95582.16
2017-12-27T04:24:13.638Z,95576.93
2017-12-27T04:26:41.954Z,95577.27
2017-12-27T04:29:10.289Z,95565.90
2017-12-27T04:31:38.608Z,95565.36
2017-12-27T04:34:06.966Z,95551.84
2017-12-27T04:36:35.302Z,95550.27
2017-12-27T04:39:04.300Z,95527.50
2017-12-27T04:41:32.628Z,95518.58
2017-12-27T04:44:00.952Z,95504.31
2017-12-27T04:46:30.053Z,95509.84
2017-12-27T04:48:58.393Z,95502.72
2017-12-27T04:51:26.728Z,95500.97
2017-12-27T04:53:55.076Z,95491.42
2017-12-27T04:56:23.391Z,95483.84
2017-12-27T04:58:51.702Z,95473.98
2017-12-27T05:01:20.015Z,95469.62
2017-12-27T05:03:48.346Z,95466.77
2017-12-27T05:06:16.676Z,95455.27
2017-12-27T05:08:45.027Z,95444.59
2017-12-27T05:11:13.364Z,95434.36
2017-12-27T05:13:41.689Z,95434.99
2017-12-27T05:16:11.110Z,95427.91
2017-12-27T05:18:40.184Z,95430.73
2017-12-27T05:21:08.509Z,95415.43
2017-12-27T05:23:36.825Z,95419.84
2017-12-27T05:26:05.209Z,95407.75
2017-12-27T05:28:33.530Z,95401.34
2017-12-27T05:31:01.866Z,95394.66
2017-12-27T05:33:30.212Z,95391.63
2017-12-27T05:35:58.559Z,95387.48
2017-12-27T05:38:26.902Z,95383.72
2017-12-27T05:40:55.245Z,95384.31
2017-12-27T05:43:23.574Z,95388.59
2017-12-27T05:45:52.676Z,95384.32
2017-12-27T05:48:21.014Z,95375.30
2017-12-27T05:50:49.364Z,95371.27
2017-12-27T05:53:17.688Z,95369.61
2017-12-27T05:55:46.030Z,95361.48
2017-12-27T05:58:14.359Z,95357.98
2017-12-27T06:00:42.688Z,95358.06
2017-12-27T06:03:11.001Z,95359.05
2017-12-27T06:05:39.335Z,95357.61
2017-12-27T06:08:07.642Z,95345.78
2017-12-27T06:10:35.987Z,95350.00
2017-12-27T06:13:04.321Z,95347.27
2017-12-27T06:15:32.747Z,95337.84
2017-12-27T06:18:01.121Z,95324.06
2017-12-27T06:20:29.447Z,95328.38
2017-12-27T06:22:57.770Z,95323.72
2017-12-27T06:25:26.111Z,95309.09
2017-12-27T06:27:55.196Z,95310.46
2017-12-27T06:30:23.525Z,95308.27
2017-12-27T06:32:51.865Z,95307.83
2017-12-27T06:35:20.969Z,95313.68
2017-12-27T06:37:49.303Z,95315.02
2017-12-27T06:40:17.647Z,95321.19
2017-12-27T06:42:45.970Z,95317.62
2017-12-27T06:45:14.326Z,95320.16
2017-12-27T06:47:42.659Z,95324.03
2017-12-27T06:50:11.753Z,95328.23
2017-12-27T06:52:40.083Z,95325.81
2017-12-27T06:55:08.428Z,95325.94
2017-12-27T06:57:36.755Z,95330.35
2017-12-27T07:00:05.108Z,95334.17
2017-12-27T07:02:33.452Z,95326.92
2017-12-27T07:05:01.797Z,95322.09
2017-12-27T07:07:30.107Z,95313.61
2017-12-27T07:09:58.416Z,95319.75
2017-12-27T07:12:26.718Z,95307.00
2017-12-27T07:14:55.047Z,95308.38
2017-12-27T07:17:23.366Z,95310.24
2017-12-27T07:19:51.718Z,95315.31
2017-12-27T07:22:20.102Z,95312.34
2017-12-27T07:24:48.430Z,95304.08
2017-12-27T07:27:16.765Z,95302.00
2017-12-27T07:29:45.140Z,95303.80
2017-12-27T07:32:13.459Z,95308.75
2017-12-27T07:34:42.554Z,95312.58
2017-12-27T07:37:11.629Z,95313.45
2017-12-27T07:39:40.171Z,95318.71
2017-12-27T07:42:08.504Z,95312.98
2017-12-27T07:44:37.641Z,95312.91
2017-12-27T07:47:05.971Z,95315.44
2017-12-27T07:49:34.299Z,95311.51
2017-12-27T07:52:02.622Z,95315.61
2017-12-27T07:54:31.316Z,95309.41
2017-12-27T07:57:00.420Z,95303.65
2017-12-27T07:59:28.742Z,95311.09
2017-12-27T08:01:57.470Z,95302.43
2017-12-27T08:04:25.798Z,95304.05
2017-12-27T08:06:54.158Z,95297.92
2017-12-27T08:09:22.488Z,95298.20
2017-12-27T08:11:50.814Z,95288.58
2017-12-27T08:14:19.140Z,95287.88
2017-12-27T08:16:47.486Z,95282.13
2017-12-27T08:19:15.834Z,95281.54
2017-12-27T08:21:44.447Z,95280.57
2017-12-27T08:24:12.784Z,95273.23
2017-12-27T08:26:42.850Z,95264.58
2017-12-27T08:29:11.180Z,95263.28
2017-12-27T08:31:40.259Z,95256.15
2017-12-27T08:34:08.592Z,95260.05
2017-12-27T08:36:36.909Z,95253.97
2017-12-27T08:39:05.251Z,95252.17
2017-12-27T08:41:34.830Z,95240.87
2017-12-27T08:44:03.910Z,95249.59
2017-12-27T08:46:33.012Z,95240.45
2017-12-27T08:49:01.349Z,95239.39
2017-12-27T08:51:29.812Z,95235.45
2017-12-27T08:53:58.168Z,95233.20
2017-12-27T08:56:26.486Z,95227.05
2017-12-27T08:58:55.594Z,95227.58
2017-12-27T09:01:24.640Z,95224.10
2017-12-27T09:03:52.962Z,95224.52
2017-12-27T09:06:21.289Z,95221.89
2017-12-27T09:08:50.704Z,95216.20
2017-12-27T09:11:19.018Z,95212.30
2017-12-27T09:13:47.339Z,95210.97
2017-12-27T09:16:15.694Z,95208.33
2017-12-27T09:18:44.028Z,95211.52
2017-12-27T09:21:12.344Z,95206.69
2017-12-27T09:23:40.676Z,95207.02
2017-12-27T09:26:09.035Z,95205.78
2017-12-27T09:28:37.349Z,95203.97
2017-12-27T09:31:05.692Z,95207.56
2017-12-27T09:33:34.007Z,95205.11
2017-12-27T09:36:02.336Z,95203.56
2017-12-27T09:38:30.685Z,95203.32
2017-12-27T09:40:59.026Z,95202.39
2017-12-27T09:43:27.690Z,95195.76
2017-12-27T09:45:56.028Z,95190.55
2017-12-27T09:48:25.099Z,95184.73
2017-12-27T09:50:53.408Z,95186.34
2017-12-27T09:53:22.482Z,95180.80
2017-12-27T09:55:50.857Z,95175.17
2017-12-27T09:58:19.196Z,95167.95
2017-12-27T10:00:47.511Z,95169.27
2017-12-27T10:03:15.878Z,95165.52
2017-12-27T10:05:44.195Z,95163.40
2017-12-27T10:08:12.518Z,95156.41
2017-12-27T10:10:40.843Z,95150.58
2017-12-27T10:13:09.184Z,95137.22
2017-12-27T10:15:37.536Z,95143.33
2017-12-27T10:18:05.862Z,95140.25
2017-12-27T10:20:34.186Z,95132.30
2017-12-27T10:23:02.514Z,95130.12
2017-12-27T10:25:30.834Z,95125.52
2017-12-27T10:27:59.168Z,95124.66
2017-12-27T10:30:27.494Z,95110.36
2017-12-27T10:33:02.242Z,95113.14
2017-12-27T10:35:30.566Z,95120.23
2017-12-27T10:37:58.884Z,95110.83
2017-12-27T10:40:27.203Z,95107.40
2017-12-27T10:42:55.526Z,95103.42
2017-12-27T10:45:23.854Z,95096.25
2017-12-27T10:47:52.190Z,95099.48
2017-12-27T10:50:20.515Z,95096.88
2017-12-27T10:52:49.424Z,95095.80
2017-12-27T10:55:17.765Z,95093.84
2017-12-27T10:57:46.100Z,95097.29
2017-12-27T11:00:14.468Z,95094.14
2017-12-27T11:02:42.796Z,95090.74
2017-12-27T11:05:11.145Z,95087.63
2017-12-27T11:07:39.476Z,95088.30
2017-12-27T11:10:07.813Z,95089.13
2017-12-27T11:12:36.148Z,95075.36
2017-12-27T11:15:04.475Z,95080.66
2017-12-27T11:17:32.808Z,95075.06
2017-12-27T11:20:01.891Z,95077.70
2017-12-27T11:22:30.223Z,95057.53
2017-12-27T11:24:58.546Z,95055.98
2017-12-27T11:27:27.644Z,95059.28
2017-12-27T11:29:56.894Z,95053.03
2017-12-27T11:32:25.227Z,95050.55
2017-12-27T11:34:54.329Z,95043.33
2017-12-27T11:37:22.662Z,95050.66
2017-12-27T11:39:51.021Z,95041.77
2017-12-27T11:42:19.362Z,95038.80
2017-12-27T11:44:48.374Z,95039.66
2017-12-27T11:47:16.756Z,95026.94
2017-12-27T11:49:45.074Z,95021.33
2017-12-27T11:52:13.407Z,95024.55
2017-12-27T11:54:41.745Z,95019.80
2017-12-27T11:57:10.085Z,95007.19
2017-12-27T11:59:38.420Z,95008.17
2017-12-27T12:02:06.729Z,95004.77
2017-12-27T12:04:35.056Z,95005.81
2017-12-27T12:07:04.197Z,94997.80
2017-12-27T12:09:32.518Z,94995.56
2017-12-27T12:12:00.851Z,94990.40
2017-12-27T12:14:29.225Z,94988.49
2017-12-27T12:16:57.545Z,94986.73
2017-12-27T12:19:25.866Z,94982.88
2017-12-27T12:21:54.199Z,94986.59
2017-12-27T12:24:23.206Z,94983.69
2017-12-27T12:26:51.518Z,94984.67
2017-12-27T12:29:19.838Z,94980.59
2017-12-27T12:31:48.184Z,94974.20
2017-12-27T12:34:16.556Z,94976.25
2017-12-27T12:36:45.894Z,94975.22
2017-12-27T12:39:14.231Z,94975.10
2017-12-27T12:41:42.554Z,94976.23
2017-12-27T12:44:10.896Z,94974.42
2017-12-27T12:46:39.227Z,94970.98
2017-12-27T12:49:07.554Z,94971.80
2017-12-27T12:51:35.870Z,94964.64
2017-12-27T12:54:04.203Z,94959.83
2017-12-27T12:56:33.122Z,94960.76
2017-12-27T12:59:01.491Z,94954.55
2017-12-27T13:01:29.828Z,94955.34
2017-12-27T13:03:58.158Z,94948.86
2017-12-27T13:06:26.478Z,94943.59
2017-12-27T13:08:54.815Z,94947.61
2017-12-27T13:11:23.151Z,94949.72
2017-12-27T13:13:51.880Z,94947.35
2017-12-27T13:16:20.207Z,94947.91
2017-12-27T13:18:48.522Z,94941.23
2017-12-27T13:21:16.877Z,94938.31
2017-12-27T13:23:45.190Z,94938.16
2017-12-27T13:26:13.510Z,94935.91
2017-12-27T13:28:41.830Z,94927.63
2017-12-27T13:31:10.150Z,94924.05
2017-12-27T13:33:39.245Z,94926.86
2017-12-27T13:36:08.344Z,94926.61
2017-12-27T13:38:36.909Z,94920.42
2017-12-27T13:41:05.235Z,94924.06
2017-12-27T13:43:33.718Z,94920.95
2017-12-27T13:46:02.044Z,94916.39
2017-12-27T13:48:30.373Z,94920.41
2017-12-27T13:50:58.701Z,94915.89
2017-12-27T13:53:27.028Z,94921.94
2017-12-27T13:55:55.626Z,94910.70
2017-12-27T13:58:23.941Z,94907.41
2017-12-27T14:00:52.256Z,94904.53
2017-12-27T14:03:20.632Z,94902.23
2017-12-27T14:05:49.687Z,94904.53
2017-12-27T14:08:18.945Z,94902.19
2017-12-27T14:10:47.289Z,94897.80
2017-12-27T14:13:16.441Z,94905.39
2017-12-27T14:15:44.766Z,94909.59
2017-12-27T14:18:14.190Z,94913.33
2017-12-27T14:20:42.506Z,94917.63
2017-12-27T14:23:10.838Z,94918.08
2017-12-27T14:25:39.330Z,94913.89
2017-12-27T14:28:07.653Z,94917.05
2017-12-27T14:30:36.016Z,94905.31
2017-12-27T14:33:04.384Z,94907.81
2017-12-27T14:35:33.412Z,94904.73
2017-12-27T14:38:01.802Z,94903.26
2017-12-27T14:40:30.131Z,94912.05
2017-12-27T14:42:58.458Z,94911.67
2017-12-27T14:45:26.782Z,94918.33
2017-12-27T14:47:55.116Z,94924.69
2017-12-27T14:50:25.172Z,94923.08
2017-12-27T14:52:54.559Z,94922.42
2017-12-27T14:55:23.673Z,94918.44
2017-12-27T14:57:51.998Z,94924.56
2017-12-27T15:00:21.094Z,94928.55
2017-12-27T15:02:49.428Z,94927.80
2017-12-27T15:05:17.751Z,94926.30
2017-12-27T15:07:46.843Z,94929.69
2017-12-27T15:10:15.167Z,94922.02
2017-12-27T15:12:43.551Z,94924.45
2017-12-27T15:15:11.874Z,94928.62
2017-12-27T15:17:40.968Z,94931.09
2017-12-27T15:20:13.130Z,94931.91
2017-12-27T15:22:41.468Z,94937.75
2017-12-27T15:25:09.786Z,94946.38
2017-12-27T15:27:38.119Z,94941.29
2017-12-27T15:30:06.441Z,94944.16
2017-12-27T15:32:35.403Z,94949.25
2017-12-27T15:35:03.729Z,94941.94
2017-12-27T15:37:32.056Z,94941.61
2017-12-27T15:40:00.374Z,94942.39
2017-12-27T15:42:28.716Z,94946.87
2017-12-27T15:44:57.043Z,94943.98
2017-12-27T15:47:26.184Z,94947.36
2017-12-27T15:49:54.544Z,94946.13
2017-12-27T15:52:22.864Z,94950.58
2017-12-27T15:54:51.205Z,94946.13
2017-12-27T15:57:19.523Z,94947.62
2017-12-27T15:59:47.849Z,94947.86
2017-12-27T16:02:16.204Z,94956.61
2017-12-27T16:04:44.541Z,94958.73
2017-12-27T16:07:12.887Z,94958.17
2017-12-27T16:09:41.227Z,94954.67
2017-12-27T16:12:09.536Z,94951.88
2017-12-27T16:14:37.880Z,94953.66
2017-12-27T16:17:06.974Z,94957.47
2017-12-27T16:19:35.284Z,94959.73
2017-12-27T16:22:03.609Z,94962.23
2017-12-27T16:24:31.945Z,94968.11
2017-12-27T16:27:00.284Z,94970.66
2017-12-27T16:29:30.849Z,94976.61
2017-12-27T16:31:59.178Z,94969.13
2017-12-27T16:34:27.537Z,94973.61
2017-12-27T16:36:55.865Z,94976.73
2017-12-27T16:39:24.188Z,94978.30
2017-12-27T16:41:52.524Z,94976.03
2017-12-27T16:44:20.862Z,94981.62
2017-12-27T16:46:49.179Z,94976.13
2017-12-27T16:49:17.490Z,94976.12
2017-12-27T16:51:45.837Z,94981.55
2017-12-27T16:54:14.161Z,94975.63
2017-12-27T16:56:43.660Z,94983.84
2017-12-27T16:59:11.978Z,94981.57
2017-12-27T17:01:40.306Z,94985.03
2017-12-27T17:04:08.622Z,94991.60
2017-12-27T17:06:36.956Z,94989.25
2017-12-27T17:09:05.328Z,94978.70
2017-12-27T17:11:33.637Z,94978.25
2017-12-27T17:14:01.970Z,94987.20
2017-12-27T17:16:30.296Z,94980.99
2017-12-27T17:18:58.622Z,94994.67
2017-12-27T17:21:26.952Z,94988.44
2017-12-27T17:23:55.293Z,94989.05
2017-12-27T17:26:23.623Z,94995.70
2017-12-27T17:28:52.720Z,94989.08
2017-12-27T17:31:21.057Z,94996.28
2017-12-27T17:33:49.386Z,94993.20
2017-12-27T17:36:17.715Z,94995.37
2017-12-27T17:38:46.059Z,94992.09
2017-12-27T17:41:14.384Z,94998.34
2017-12-27T17:43:42.728Z,94999.69
2017-12-27T17:46:11.060Z,95006.57
2017-12-27T17:48:39.404Z,95007.52
2017-12-27T17:51:07.718Z,95012.64
2017-12-27T17:53:36.801Z,95008.00
2017-12-27T17:56:05.127Z,95008.08
2017-12-27T17:58:33.434Z,95010.56
2017-12-27T18:01:01.764Z,95016.13
2017-12-27T18:03:30.078Z,95017.81
2017-12-27T18:05:58.400Z,95016.75
2017-12-27T18:08:26.736Z,95023.33
2017-12-27T18:10:55.080Z,95022.73
2017-12-27T18:13:23.399Z,95031.75
2017-12-27T18:15:51.733Z,95030.78
2017-12-27T18:18:20.065Z,95032.36
2017-12-27T18:20:48.400Z,95031.91
2017-12-27T18:23:16.740Z,95036.67
2017-12-27T18:25:45.081Z,95032.95
2017-12-27T18:28:13.403Z,95038.95
2017-12-27T18:30:41.744Z,95037.56
2017-12-27T18:33:10.066Z,95037.48
2017-12-27T18:35:39.367Z,95040.71
2017-12-27T18:38:07.697Z,95048.23
2017-12-27T18:40:36.026Z,95048.53
2017-12-27T18:43:04.365Z,95044.71
2017-12-27T18:45:33.481Z,95042.62
2017-12-27T18:48:01.869Z,95035.47
2017-12-27T18:50:30.256Z,95037.38
2017-12-27T18:52:58.704Z,95033.97
2017-12-27T18:55:27.850Z,95035.61
2017-12-27T18:57:56.274Z,95041.19
2017-12-27T19:00:24.683Z,95038.60
2017-12-27T19:02:53.080Z,95041.39
2017-12-27T19:05:21.473Z,95047.97
2017-12-27T19:07:49.832Z,95038.45
2017-12-27T19:10:18.199Z,95043.02
2017-12-27T19:12:46.545Z,95047.13
2017-12-27T19:15:14.921Z,95046.77
2017-12-27T19:17:43.272Z,95047.63
2017-12-27T19:20:11.681Z,95044.07
2017-12-27T19:22:40.160Z,95044.91
2017-12-27T19:25:09.424Z,95050.36
2017-12-27T19:27:38.097Z,95052.67
2017-12-27T19:30:07.736Z,95063.34
2017-12-27T19:32:37.403Z,95062.92
2017-12-27T19:35:07.192Z,95073.00
2017-12-27T19:37:37.034Z,95072.93
2017-12-27T19:40:06.246Z,95072.59
2017-12-27T19:42:36.113Z,95065.88
2017-12-27T19:45:05.911Z,95073.74
2017-12-27T19:47:35.714Z,95074.67
2017-12-27T19:50:05.474Z,95070.75
2017-12-27T19:52:36.081Z,95066.11
2017-12-27T19:55:06.068Z,95059.19
2017-12-27T19:57:35.799Z,95069.15
2017-12-27T20:00:05.707Z,95071.58
2017-12-27T20:02:36.338Z,95075.25
2017-12-27T20:05:06.175Z,95053.09
2017-12-27T20:07:37.291Z,95078.09
2017-12-27T20:10:07.170Z,95079.67
2017-12-27T20:12:37.106Z,95084.32
2017-12-27T20:15:07.063Z,95077.13
2017-12-27T20:17:37.633Z,95081.88
2017-12-27T20:20:07.575Z,95085.33
2017-12-27T20:22:37.404Z,95079.90
2017-12-27T20:25:07.263Z,95090.11
2017-12-27T20:27:38.597Z,95089.89
2017-12-27T20:30:09.231Z,95086.83
2017-12-27T20:32:39.213Z,95099.08
2017-12-27T20:35:09.229Z,95095.95
2017-12-27T20:37:39.124Z,95100.17
2017-12-27T20:40:09.059Z,95101.59
2017-12-27T20:42:39.808Z,95103.00
2017-12-27T20:45:10.522Z,95101.61
2017-12-27T20:47:41.288Z,95104.72
2017-12-27T20:50:11.159Z,95108.91
2017-12-27T20:52:41.058Z,95115.11
2017-12-27T20:55:10.933Z,95118.33
2017-12-27T20:57:40.922Z,95117.67
2017-12-27T21:00:10.792Z,95126.73
2017-12-27T21:02:40.706Z,95125.83
2017-12-27T21:05:10.553Z,95127.48
2017-12-27T21:07:40.367Z,95132.45
2017-12-27T21:10:10.238Z,95132.48
2017-12-27T21:12:40.177Z,95132.90
2017-12-27T21:15:10.002Z,95134.92
2017-12-27T21:17:40.710Z,95136.59
2017-12-27T21:20:10.514Z,95132.83
2017-12-27T21:22:40.395Z,95140.13
2017-12-27T21:25:10.267Z,95135.50
2017-12-27T21:27:40.157Z,95130.33
2017-12-27T21:30:10.010Z,95138.58
2017-12-27T21:32:39.817Z,95138.61
2017-12-27T21:35:10.280Z,95136.08
2017-12-27T21:37:40.206Z,95140.08
2017-12-27T21:40:10.116Z,95137.09
2017-12-27T21:42:39.892Z,95140.70
2017-12-27T21:45:09.650Z,95138.22
2017-12-27T21:47:44.700Z,95145.97
2017-12-27T21:50:14.578Z,95148.59
2017-12-27T21:52:45.115Z,95144.88
2017-12-27T21:55:14.961Z,95146.98
2017-12-27T21:57:44.867Z,95145.39
2017-12-27T22:00:19.970Z,95150.33
2017-12-27T22:02:49.869Z,95148.59
2017-12-27T22:05:19.761Z,95154.11
2017-12-27T22:07:49.495Z,95146.19
2017-12-27T22:10:19.992Z,95148.95
2017-12-27T22:12:49.802Z,95151.56
2017-12-27T22:15:19.650Z,95156.54
2017-12-27T22:17:49.388Z,95159.64
2017-12-27T22:20:24.647Z,95161.52
2017-12-27T22:22:54.316Z,95163.52
2017-12-27T22:25:23.937Z,95165.05
2017-12-27T22:27:53.647Z,95169.77
2017-12-27T22:30:23.419Z,95170.19
2017-12-27T22:32:53.176Z,95175.69
2017-12-27T22:35:22.952Z,95173.27
2017-12-27T22:37:52.709Z,95176.09
2017-12-27T22:40:22.560Z,95178.58
2017-12-27T22:42:52.185Z,95177.36
2017-12-27T22:45:21.636Z,95179.66
2017-12-27T22:47:50.965Z,95179.23
2017-12-27T22:50:20.094Z,95177.13
2017-12-27T22:52:49.388Z,95175.45
2017-12-27T22:55:18.496Z,95174.61
2017-12-27T22:57:47.192Z,95178.52
2017-12-27T23:00:16.083Z,95180.68
2017-12-27T23:02:44.537Z,95174.72
2017-12-27T23:05:12.923Z,95176.53
2017-12-27T23:07:41.382Z,95176.35
2017-12-27T23:10:09.739Z,95175.56
2017-12-27T23:12:38.147Z,95188.92
2017-12-27T23:15:07.276Z,95188.16
2017-12-27T23:17:35.633Z,95184.26
2017-12-27T23:20:03.970Z,95183.37
2017-12-27T23:22:32.310Z,95179.08
2017-12-27T23:25:00.660Z,95188.16
2017-12-27T23:27:29.746Z,95189.02
2017-12-27T23:29:58.095Z,95188.67
2017-12-27T23:32:26.414Z,95184.76
2017-12-27T23:34:54.768Z,95187.56
2017-12-27T23:37:23.105Z,95191.91
2017-12-27T23:39:51.435Z,95191.37
2017-12-27T23:42:19.772Z,95199.50
2017-12-27T23:44:48.129Z,95199.03
2017-12-27T23:47:16.469Z,95206.52
2017-12-27T23:49:44.815Z,95207.41
2017-12-27T23:52:13.151Z,95207.02
2017-12-27T23:54:41.474Z,95204.55
2017-12-27T23:57:09.801Z,95201.00
2017-12-27T23:59:38.121Z,95193.16
